• Join FlightAware (Why Join?)
  • Login
  • US Flag 
09:35PM EST


 

Airport Tracker/Info


-or-


 

Live Flight TrackerFlight Track Log ✈ N899B ✈ 26-Jun-2013 ✈ KFCM - KGRR

Flight Track Log - Related Links

Times and Time Zones

All times are in EDT time to prevent confusion due to time zone crossing. See the N899B flight status page for this flight to view local times or setup timezone preferences in your user account.

Time Position Orientation Groundspeed Altitude Reporting Facility
EDT Latitude Longitude Course Direction KTS MPH feet Rate Location/Type
04:13PM 44.8167 -93.5667 72° East 225 259 3,200  Level Minneapolis TRACON
04:15PM 44.7772 -93.4869 125° Southeast 246 283 5,100 780 Climbing Minneapolis Center
04:16PM 44.7917 -93.3794 79° East 275 316 5,100 900 Level Minneapolis Center
04:17PM 44.8128 -93.2831 73° East 255 293 7,000 2,280 Climbing Minneapolis Center
04:18PM 44.8486 -93.2003 59° Northeast 250 288 9,900 2,820 Climbing Minneapolis Center
04:19PM 45.0068 -92.7598 72° East  Level FlightAware Approximate
04:19PM 44.8903 -93.1192 54° Northeast 253 291 12,900  Level Minneapolis Center
04:20PM 44.9372 -93.0267 54° Northeast 242 278 16,000 2,220 Climbing Minneapolis Center
04:21PM 44.9819 -92.9378 55° Northeast 280 322 17,500 1,500 Climbing Minneapolis Center
04:22PM 45.0317 -92.8383 55° Northeast 302 348 19,100 1,440 Climbing Minneapolis Center
04:23PM 45.0850 -92.7317 55° Northeast 325 374 20,500 1,500 Climbing Minneapolis Center
04:24PM 45.1397 -92.6206 55° Northeast 342 394 22,300 1,980 Climbing Minneapolis Center
04:25PM 45.1922 -92.5142 55° Northeast 333 383 24,700 2,340 Climbing Minneapolis Center
04:26PM 45.2425 -92.3886 60° Northeast 312 359 27,200 1,920 Climbing Minneapolis Center
04:27PM 45.2617 -92.2608 78° East 325 374 28,700 1,500 Climbing Minneapolis Center
04:28PM 45.2847 -92.1306 76° East 338 389 30,300 1,440 Climbing Minneapolis Center
04:29PM 45.2958 -91.9964 83° East 341 392 31,800 1,380 Climbing Minneapolis Center
04:30PM 45.3047 -91.8619 85° East 342 394 33,200 1,200 Climbing Minneapolis Center
04:31PM 45.3125 -91.7294 85° East 338 389 34,300 1,080 Climbing Minneapolis Center
04:32PM 45.3100 -91.5681 91° East 341 392 35,500 1,020 Climbing Minneapolis Center
04:33PM 45.2914 -91.4328 101° East 345 397 36,500 720 Climbing Minneapolis Center
04:34PM 45.2472 -91.3186 119° Southeast 331 381 37,000 300 Climbing Minneapolis Center
04:35PM 45.2031 -91.1961 117° Southeast 349 402 37,200 960 Climbing Minneapolis Center
04:36PM 45.1444 -91.0467 119° Southeast 359 413 39,000 840 Climbing Minneapolis Center
04:37PM 45.0978 -90.9172 117° Southeast 356 410 39,000  Level Minneapolis Center
04:38PM 45.0503 -90.7872 117° Southeast 380 437 39,000  Level Minneapolis Center
04:40PM 45.0072 -90.6744 118° Southeast 401 461 39,000  Level Minneapolis Center
04:41PM 44.9431 -90.5017 118° Southeast 413 475 39,000  Level Minneapolis Center
04:42PM 44.8872 -90.3564 118° Southeast 420 483 39,000  Level Minneapolis Center
04:43PM 44.8261 -90.1981 119° Southeast 418 481 39,000  Level Minneapolis Center
04:44PM 44.7719 -90.0558 118° Southeast 414 476 39,000  Level Minneapolis Center
04:45PM 44.7092 -89.8919 118° Southeast 408 470 39,000  Level Minneapolis Center
04:46PM 44.6547 -89.7544 119° Southeast 403 464 39,000  Level Minneapolis Center
04:47PM 44.6019 -89.6178 118° Southeast 400 460 39,000  Level Minneapolis Center
04:48PM 44.5489 -89.4797 118° Southeast 401 461 39,000  Level Minneapolis Center
04:49PM 44.4942 -89.3447 120° Southeast 399 459 39,000  Level Minneapolis Center
04:50PM 44.4403 -89.2075 119° Southeast 399 459 39,000  Level Minneapolis Center
04:51PM 44.3767 -89.0478 119° Southeast 401 461 39,000  Level Minneapolis Center
04:52PM 44.3222 -88.9147 120° Southeast 399 459 39,000  Level Minneapolis Center
04:53PM 44.2681 -88.7758 119° Southeast 401 461 39,000  Level Minneapolis Center
04:54PM 44.2131 -88.6386 119° Southeast 404 465 39,000  Level Minneapolis Center
04:55PM 44.1592 -88.5044 119° Southeast 396 456 39,000  Level Minneapolis Center
04:56PM 44.1058 -88.3725 119° Southeast 393 452 39,000 -360 Level Chicago Center
04:57PM 44.0417 -88.2164 120° Southeast 394 453 38,300 -840 Descending Chicago Center
04:58PM 43.9867 -88.0808 119° Southeast 398 458 37,300 -1,020 Descending Chicago Center
04:59PM 43.9322 -87.9500 120° Southeast 391 450 36,300 -1,020 Descending Chicago Center
05:00PM 43.8775 -87.8194 120° Southeast 391 450 35,300 -1,020 Descending Chicago Center
05:01PM 43.8225 -87.6878 120° Southeast 392 451 34,200 -1,020 Descending Chicago Center
05:02PM 43.7661 -87.5556 121° Southeast 396 456 33,200 -1,380 Descending Chicago Center
05:03PM 43.7011 -87.3994 120° Southeast 399 459 31,400 -1,560 Descending Chicago Center
05:04PM 43.6500 -87.2781 120° Southeast 406 467 30,000 -1,620 Descending Chicago Center
05:05PM 43.5922 -87.1431 121° Southeast 409 471 28,100 -2,340 Descending Chicago Center
05:07PM 43.4678 -86.8547 121° Southeast 387 445 22,800 -2,520 Descending Chicago Center
05:08PM 43.4150 -86.7319 121° Southeast 376 433 20,300 -2,460 Descending Chicago Center
05:10PM 43.3633 -86.6128 121° Southeast 364 419 17,800 -2,280 Descending Chicago Center
05:11PM 43.3128 -86.4969 121° Southeast 355 409 15,700 -2,040 Descending Chicago Center
05:12PM 43.2647 -86.3867 121° Southeast 341 392 13,700 -2,100 Descending Chicago Center
05:13PM 43.2083 -86.2583 121° Southeast 329 379 11,400 -2,040 Descending Chicago Center
05:14PM 43.1656 -86.1608 121° Southeast 305 351 9,500 -1,920 Descending Chicago Center
05:15PM 43.1228 -86.0678 122° Southeast 291 335 7,500 -1,680 Descending Chicago Center
05:16PM 43.0592 -86.0067 145° Southeast 281 323 6,100 -1,200 Descending Chicago Center
05:17PM 43.0128 -85.9142 124° Southeast 287 330 5,100 -960 Descending Chicago Center
05:18PM 42.9800 -85.8233 116° Southeast 271 312 4,200 -540 Descending Chicago Center
05:19PM 42.9481 -85.7356 116° Southeast 264 304 4,000 -540 Descending Chicago Center
05:20PM 42.9133 -85.6661 124° Southeast 234 269 3,200 -900 Descending Chicago Center
05:21PM 42.8864 -85.6125 124° Southeast 199 229 2,200 -1,020 Descending Chicago Center
05:22PM 42.8736 -85.5589 108° East 148 170 1,100 -660 Descending Chicago Center
05:23PM 42.8728 -85.5183 92° East 137 158 900 -240 Descending Chicago Center
05:25PM 42.8667 -85.5167 North  Level FlightAware Approximate